Weather at Fuerteventura Airport

Public forecast

Using degrees Celsius for public forecast. Weather courtesy of forecast.io.

Current aviation weather report (METAR) for Fuerteventura Airport

2024/06/18 06:30 (retrieved 17 minutes ago)

GCFV 180630Z 01012KT 9999 BKN025 20/14 Q1017

Closest aviation forecast (TAF) to Fuerteventura Airport

Closest forecast is Hassan I Airport, 85.7 nm (158.7 km) SSE.

2024/06/18 06:36 (retrieved 11 minutes ago)

TAF TAF GMML 180500Z 1806/1912 05017KT 8000 OVC015 BECMG 1808/1812 BKN010